South Lyme, CT (06376)

2:46 PM EDT on April 28, 2015 (GMT -0400)
Giants Neck Beach | | Change Station
CLOSE
Current Station
Personal Weather Station
Location: Niantic, CT
Elevation: 78 ft
Nearby Weather Stations
Active Advisory: Special Statement

Elev 78 ft 41.30 °N, 72.23 °W | Updated 6 minutes ago

Partly Cloudy
Partly Cloudy
50.0 °F
Feels Like 48 °F
N
6.0
Wind Variable Wind from SW
Gusts 11.0 mph

Today
High -- | Low -- °F
--% Chance of Precip.
Yesterday
High -- | Low -- °F
Precip. -- in
5:50 AM 7:42 PM
Waxing Gibbous, 75% visible
Pressure 29.73 in
Visibility 10.0 miles
Clouds Mostly Cloudy 6000 ft
Windchill 48 °F
Dew Point 42 °F
Humidity 74%
Rainfall 0.00 in
Snow Depth Not available.
UV 5 out of 12
Pollen 10.50 out of 12
Air Quality Not available.
Flu Activity Widespread
METAR KGON 281756Z 19014KT 10SM BKN060 11/04 A2972 RMK AO2 SLP065 60000 T01110039 10156 20083 58013

More Conditions Fewer Conditions

Pressure 29.73 in
Visibility 10.0 miles
Clouds Mostly Cloudy 6000 ft
Windchill 48 °F
Dew Point 42 °F
Humidity 74%
Rainfall 0.00 in
Snow Depth Not available.
UV 5 out of 12
Pollen 10.50 out of 12
Air Quality Not available.
Flu Activity Widespread
METAR KGON 281756Z 19014KT 10SM BKN060 11/04 A2972 RMK AO2 SLP065 60000 T01110039 10156 20083 58013

More Conditions Fewer Conditions

10-Day Weather Forecast

Almanac

Astronomy

Apr. 28, 2015 Rise Set
Actual Time
Civil Twilight
Nautical Twilight
Astronomical Twilight
Moon
Length of Visible Light
Length of Day
Tomorrow will be .
, % of the Moon is Illuminated

Today's Extremes

State Highs State Lows

Community

WunderPhotos

Upload Photos

1,817,725 photos uploaded!

WunderBlogs® & News

Nearby

Air Quality

  Air Quality AQ Index Pollutant
Not available.

Snow Depth

Station Depth Elevation

Earthquake Activity

City Distance Mag. Time & Date
Minimum magnitude displayed is 2.5.

Coastal Water Temperatures

Place Temperature

Stations

Nearby Weather Stations

Station Location Temp. Windchill Dew Point Humidity Wind Precip. Elev Updated Type
                   
Special Statement
Statement as of 9:34 AM EDT on April 28, 2015

... Gusty winds and dry conditions today...

North to northwest winds will gust up to 20 to 25 mph today...
while relative humidities fall to 30 to 35 percent. This will
increase the risk for growth and spread of any fires
that develop.